Time;durP1;ratioP1;P1;durP2;ratioP2;P2;SDS_P1;SDS_P2;PMS_P1;PMS_P2;Temp;Humidity;BMP_temperature;BMP_pressure;BME280_temperature;BME280_humidity;BME280_pressure;Samples;Min_cycle;Max_cycle;Signal;HPM_P1;HPM_P2
2022/09/03 00:00:23;;;;;;;;;;;;;;;21.24;42.99;100833.91;1029194;28;1133;-65
2022/09/03 00:01:14;;;;;;;;;;;;;;;21.24;42.67;100828.47;1025395;28;627;-66
2022/09/03 00:02:04;;;;;;;;;;;;;;;21.24;42.64;100833.91;1026445;28;732;-66
2022/09/03 00:02:55;;;;;;;;;;;;;;;21.24;42.79;100832.03;1028213;28;1313;-65
2022/09/03 00:03:45;;;;;;;;;;;;;;;21.23;42.71;100827.63;1031314;28;751;-65
2022/09/03 00:04:36;;;;;;;;;;;;;;;21.24;42.79;100834.75;1029468;28;1209;-65
2022/09/03 00:05:26;;;;;;;;;;;;;;;21.24;42.83;100832.03;1028908;28;955;-65
2022/09/03 00:06:17;;;;;;;;;;;;;;;21.24;42.67;100839.31;1027982;28;692;-65
2022/09/03 00:07:07;;;;;;;;;;;;;;;21.21;42.56;100828.81;1028303;28;936;-65
2022/09/03 00:07:57;;;;;;;;;;;;;;;21.22;42.75;100835.91;1028429;28;797;-65
2022/09/03 00:08:48;;;;;;;;;;;;;;;21.22;42.75;100834.06;1028434;28;752;-65
2022/09/03 00:09:40;;;;;;;;;;;;;;;21.21;42.68;100831.50;1029570;28;629;-65
2022/09/03 00:10:30;;;;;;;;;;;;;;;21.20;42.94;100829.81;1028988;28;639;-65
2022/09/03 00:11:21;;;;;;;;;;;;;;;21.20;42.60;100832.53;1029642;28;680;-66
2022/09/03 00:12:11;;;;;;;;;;;;;;;21.18;42.58;100832.66;1028998;28;631;-65
2022/09/03 00:13:02;;;;;;;;;;;;;;;21.19;42.79;100831.66;1029541;28;663;-65
2022/09/03 00:13:52;;;;;;;;;;;;;;;21.18;42.64;100824.53;1029004;28;706;-65
2022/09/03 00:14:43;;;;;;;;;;;;;;;21.18;42.73;100826.41;1029569;28;697;-65
2022/09/03 00:15:33;;;;;;;;;;;;;;;21.17;42.57;100828.25;1028978;28;619;-65
2022/09/03 00:16:24;;;;;;;;;;;;;;;21.16;42.44;100826.56;1029564;28;737;-65
2022/09/03 00:17:15;;;;;;;;;;;;;;;21.17;42.70;100833.69;1029552;28;650;-65
2022/09/03 00:18:05;;;;;;;;;;;;;;;21.17;42.68;100824.69;1029027;28;661;-67
2022/09/03 00:18:56;;;;;;;;;;;;;;;21.15;42.59;100831.13;1029366;28;1257;-65
2022/09/03 00:19:46;;;;;;;;;;;;;;;21.15;42.70;100831.13;1028350;28;697;-65
2022/09/03 00:20:37;;;;;;;;;;;;;;;21.15;42.51;100831.13;1029415;28;1223;-65
2022/09/03 00:21:27;;;;;;;;;;;;;;;21.14;42.47;100829.44;1027802;28;705;-65
2022/09/03 00:22:18;;;;;;;;;;;;;;;21.15;42.86;100838.41;1029559;28;766;-65
2022/09/03 00:23:08;;;;;;;;;;;;;;;21.14;42.63;100829.44;1029120;28;1132;-65
2022/09/03 00:23:58;;;;;;;;;;;;;;;21.13;42.69;100825.06;1029893;28;1161;-65
2022/09/03 00:24:49;;;;;;;;;;;;;;;21.11;42.81;100827.09;1027956;28;737;-65
2022/09/03 00:25:39;;;;;;;;;;;;;;;21.10;42.68;100822.69;1029384;28;1161;-65
2022/09/03 00:26:30;;;;;;;;;;;;;;;21.10;42.77;100828.09;1024623;29;702;-65
2022/09/03 00:27:20;;;;;;;;;;;;;;;21.11;42.79;100824.38;1026258;28;1150;-65
2022/09/03 00:28:11;;;;;;;;;;;;;;;21.12;42.48;100822.53;1024635;29;669;-65
2022/09/03 00:29:02;;;;;;;;;;;;;;;21.11;42.53;100818.97;1028713;28;1232;-65
2022/09/03 00:29:53;;;;;;;;;;;;;;;21.10;42.71;100819.13;1024468;29;651;-65
2022/09/03 00:30:43;;;;;;;;;;;;;;;21.10;42.75;100824.53;1027907;28;1145;-65
2022/09/03 00:31:36;;;;;;;;;;;;;;;21.08;42.71;100824.72;1025606;29;615;-65
2022/09/03 00:32:26;;;;;;;;;;;;;;;21.07;42.62;100823.00;1029923;28;1177;-65
2022/09/03 00:33:17;;;;;;;;;;;;;;;21.08;42.88;100822.00;1029423;28;638;-65
2022/09/03 00:34:08;;;;;;;;;;;;;;;21.09;42.68;100822.84;1028994;28;692;-65
2022/09/03 00:34:58;;;;;;;;;;;;;;;21.08;42.59;100816.59;1028884;28;690;-65
2022/09/03 00:35:49;;;;;;;;;;;;;;;21.07;42.65;100822.16;1029418;28;701;-65
2022/09/03 00:36:42;;;;;;;;;;;;;;;21.06;42.96;100820.47;1029457;28;683;-67
2022/09/03 00:37:33;;;;;;;;;;;;;;;21.05;42.63;100819.63;1028332;28;1244;-66
2022/09/03 00:38:23;;;;;;;;;;;;;;;21.05;42.95;100814.19;1028926;28;746;-65
2022/09/03 00:39:14;;;;;;;;;;;;;;;21.05;42.82;100821.47;1029170;28;679;-65
2022/09/03 00:40:06;;;;;;;;;;;;;;;21.03;42.71;100816.22;1029542;28;599;-65
2022/09/03 00:40:57;;;;;;;;;;;;;;;21.03;42.80;100816.22;1024012;29;1253;-65
2022/09/03 00:41:47;;;;;;;;;;;;;;;21.03;42.97;100810.81;1024077;29;699;-65
2022/09/03 00:42:38;;;;;;;;;;;;;;;21.04;42.64;100817.06;1028306;28;1317;-65
2022/09/03 00:43:31;;;;;;;;;;;;;;;21.02;42.62;100814.53;1029448;28;1349;-65
2022/09/03 00:44:21;;;;;;;;;;;;;;;21.02;42.81;100819.09;1029044;28;1075;-65
2022/09/03 00:45:12;;;;;;;;;;;;;;;21.02;42.48;100819.94;1032528;28;705;-65
2022/09/03 00:46:05;;;;;;;;;;;;;;;21.01;42.59;100812.84;1026070;28;639;-65
2022/09/03 00:46:56;;;;;;;;;;;;;;;21.02;42.41;100819.94;1026114;28;740;-65
2022/09/03 00:47:46;;;;;;;;;;;;;;;21.03;42.41;100818.94;1024499;29;651;-65
2022/09/03 00:48:38;;;;;;;;;;;;;;;21.01;42.34;100812.00;1027887;28;753;-65
2022/09/03 00:49:28;;;;;;;;;;;;;;;21.01;42.62;100812.84;1028811;28;1146;-65
2022/09/03 00:50:19;;;;;;;;;;;;;;;21.01;42.66;100817.41;1028001;28;701;-65
2022/09/03 00:51:10;;;;;;;;;;;;;;;20.98;42.66;100818.59;1028901;28;721;-65
2022/09/03 00:52:01;;;;;;;;;;;;;;;20.99;42.64;100808.59;1029372;28;984;-65
2022/09/03 00:52:52;;;;;;;;;;;;;;;20.97;42.87;100816.03;1028888;28;1238;-65
2022/09/03 00:53:42;;;;;;;;;;;;;;;20.97;42.55;100813.34;1029348;28;751;-65
2022/09/03 00:54:33;;;;;;;;;;;;;;;20.96;42.43;100814.38;1028975;28;635;-65
2022/09/03 00:55:24;;;;;;;;;;;;;;;20.96;42.89;100819.78;1028189;28;1133;-65
2022/09/03 00:56:14;;;;;;;;;;;;;;;20.95;42.44;100813.53;1027435;28;1895;-65
2022/09/03 00:57:05;;;;;;;;;;;;;;;20.95;42.70;100813.53;1028933;28;666;-65
2022/09/03 00:57:55;;;;;;;;;;;;;;;20.95;42.75;100808.09;1028564;28;1134;-65
2022/09/03 00:58:46;;;;;;;;;;;;;;;20.96;42.32;100809.78;1028884;28;599;-65
2022/09/03 00:59:36;;;;;;;;;;;;;;;20.96;42.81;100806.25;1029365;28;1145;-65
2022/09/03 01:00:28;;;;;;;;;;;;;;;20.94;42.43;100806.41;1028851;28;745;-65
2022/09/03 01:01:18;;;;;;;;;;;;;;;20.94;42.44;100806.41;1029344;28;682;-65
2022/09/03 01:02:08;;;;;;;;;;;;;;;20.94;42.72;100809.13;1030269;28;1197;-65
2022/09/03 01:02:59;;;;;;;;;;;;;;;20.95;42.60;100809.97;1030821;28;1274;-65
2022/09/03 01:03:50;;;;;;;;;;;;;;;20.93;42.54;100810.13;1028026;28;1125;-65
2022/09/03 01:04:40;;;;;;;;;;;;;;;20.93;42.52;100806.56;1029671;28;1260;-65
2022/09/03 01:05:33;;;;;;;;;;;;;;;20.92;42.68;100808.44;1029788;28;1270;-65
2022/09/03 01:06:23;;;;;;;;;;;;;;;20.92;42.83;100811.16;1030267;28;1074;-65
2022/09/03 01:07:14;;;;;;;;;;;;;;;20.91;42.68;100809.44;1029896;28;1100;-65
2022/09/03 01:08:05;;;;;;;;;;;;;;;20.93;42.71;100809.28;1030313;28;1013;-65
2022/09/03 01:08:56;;;;;;;;;;;;;;;20.92;42.76;100811.16;1023597;28;1081;-65
2022/09/03 01:09:47;;;;;;;;;;;;;;;20.91;42.99;100814.88;1023895;28;1199;-65
2022/09/03 01:10:40;;;;;;;;;;;;;;;20.91;42.98;100811.31;1026216;28;1104;-65
2022/09/03 01:11:31;;;;;;;;;;;;;;;20.90;43.08;100805.03;1029818;28;1136;-65
2022/09/03 01:12:21;;;;;;;;;;;;;;;20.91;43.04;100808.59;1028709;28;1195;-65
2022/09/03 01:13:12;;;;;;;;;;;;;;;20.90;42.81;100804.19;1028273;28;1147;-65
2022/09/03 01:14:02;;;;;;;;;;;;;;;20.88;42.71;100801.66;1029873;28;1095;-66
2022/09/03 01:14:53;;;;;;;;;;;;;;;20.89;42.76;100811.47;1029600;28;1057;-65
2022/09/03 01:15:43;;;;;;;;;;;;;;;20.88;42.82;100807.06;1029717;28;1100;-65
2022/09/03 01:16:34;;;;;;;;;;;;;;;20.89;43.15;100811.47;1029130;28;1152;-65
2022/09/03 01:17:24;;;;;;;;;;;;;;;20.88;42.89;100812.50;1028309;28;1132;-65
2022/09/03 01:18:16;;;;;;;;;;;;;;;20.88;42.91;100815.19;1027859;28;1089;-65
2022/09/03 01:19:07;;;;;;;;;;;;;;;20.88;42.49;100807.06;1028567;28;998;-65
2022/09/03 01:19:58;;;;;;;;;;;;;;;20.88;42.78;100811.63;1027065;28;1148;-65
2022/09/03 01:20:49;;;;;;;;;;;;;;;20.86;42.45;100813.66;1027621;28;974;-65
2022/09/03 01:21:39;;;;;;;;;;;;;;;20.86;42.36;100813.66;1028927;28;1123;-66
2022/09/03 01:22:30;;;;;;;;;;;;;;;20.86;42.56;100816.38;1028667;28;1058;-65
2022/09/03 01:23:20;;;;;;;;;;;;;;;20.85;42.67;100817.38;1029168;28;1148;-65
2022/09/03 01:24:11;;;;;;;;;;;;;;;20.86;42.51;100819.09;1024171;29;1375;-65
2022/09/03 01:25:02;;;;;;;;;;;;;;;20.85;42.72;100822.81;1024721;28;1442;-65
2022/09/03 01:25:53;;;;;;;;;;;;;;;20.83;42.96;100816.69;1028776;28;1148;-66
2022/09/03 01:26:43;;;;;;;;;;;;;;;20.82;42.51;100818.56;1030208;28;1091;-65
2022/09/03 01:27:34;;;;;;;;;;;;;;;20.84;42.61;100821.09;1028032;28;1219;-65
2022/09/03 01:28:24;;;;;;;;;;;;;;;20.82;42.39;100818.56;1032463;28;1170;-65
2022/09/03 01:29:15;;;;;;;;;;;;;;;20.80;42.89;100813.31;1029893;28;1155;-65
2022/09/03 01:30:06;;;;;;;;;;;;;;;20.79;42.52;100818.88;1031050;28;1058;-65
2022/09/03 01:30:56;;;;;;;;;;;;;;;20.80;42.61;100820.59;1030457;28;1132;-65
2022/09/03 01:31:46;;;;;;;;;;;;;;;20.80;42.50;100821.44;1030792;28;1120;-65
2022/09/03 01:32:37;;;;;;;;;;;;;;;20.79;42.54;100824.31;1030832;28;1116;-66
2022/09/03 01:33:27;;;;;;;;;;;;;;;20.79;42.60;100824.31;1023380;28;1149;-67
2022/09/03 01:34:18;;;;;;;;;;;;;;;20.78;42.22;100822.66;1026705;28;1112;-65
2022/09/03 01:35:08;;;;;;;;;;;;;;;20.77;42.62;100829.06;1030421;28;1103;-65
2022/09/03 01:35:59;;;;;;;;;;;;;;;20.77;42.39;100820.94;1031067;28;1935;-65
2022/09/03 01:36:49;;;;;;;;;;;;;;;20.77;42.71;100826.38;1030837;28;973;-65
2022/09/03 01:37:39;;;;;;;;;;;;;;;20.77;42.33;100816.38;1030092;28;1045;-65
2022/09/03 01:38:30;;;;;;;;;;;;;;;20.78;42.73;100822.66;1025764;28;685;-65
2022/09/03 01:39:20;;;;;;;;;;;;;;;20.77;42.41;100820.94;1026240;28;1201;-65
2022/09/03 01:40:11;;;;;;;;;;;;;;;20.78;42.32;100822.66;1027947;28;1098;-65
2022/09/03 01:42:12;;;;;;;;;;;;;;;20.76;42.37;100820.09;1028935;28;1180;-65
2022/09/03 01:42:14;;;;;;;;;;;;;;;20.76;42.32;100817.38;1026538;28;1194;-65
2022/09/03 01:43:05;;;;;;;;;;;;;;;20.75;42.48;100818.41;1028644;28;1177;-65
2022/09/03 01:43:56;;;;;;;;;;;;;;;20.76;42.56;100819.25;1028004;28;1170;-65
2022/09/03 01:44:47;;;;;;;;;;;;;;;20.74;42.58;100827.53;1024768;28;1067;-65
2022/09/03 01:45:39;;;;;;;;;;;;;;;20.74;42.55;100823.97;1026828;28;1194;-65
2022/09/03 01:46:30;;;;;;;;;;;;;;;20.75;42.40;100828.38;1025605;28;1040;-66
2022/09/03 01:47:20;;;;;;;;;;;;;;;20.73;42.48;100833.13;1028785;28;1232;-65
2022/09/03 01:48:11;;;;;;;;;;;;;;;20.72;42.43;100823.28;1027952;28;1169;-65
2022/09/03 01:49:02;;;;;;;;;;;;;;;20.73;42.49;100825.84;1028044;28;1359;-65
2022/09/03 01:49:56;;;;;;;;;;;;;;;20.73;42.37;100814.16;1027663;28;1189;-65
2022/09/03 01:50:47;;;;;;;;;;;;;;;20.72;42.63;100820.59;1029170;28;1161;-65
2022/09/03 01:51:37;;;;;;;;;;;;;;;20.72;42.52;100824.16;1028428;28;1170;-65
2022/09/03 01:52:27;;;;;;;;;;;;;;;20.72;42.49;100820.59;1029155;28;670;-65
2022/09/03 01:53:18;;;;;;;;;;;;;;;20.73;42.38;100816.88;1028304;28;1165;-65
2022/09/03 01:54:09;;;;;;;;;;;;;;;20.73;42.42;100819.56;1029733;28;1169;-65
2022/09/03 01:54:59;;;;;;;;;;;;;;;20.71;42.27;100821.59;1028195;28;1170;-65
2022/09/03 01:55:50;;;;;;;;;;;;;;;20.70;42.69;100819.91;1029068;28;1169;-65
2022/09/03 01:56:40;;;;;;;;;;;;;;;20.71;42.40;100824.31;1028307;28;1153;-65
2022/09/03 01:57:33;;;;;;;;;;;;;;;20.70;42.60;100817.19;1028955;28;1198;-65
2022/09/03 01:58:24;;;;;;;;;;;;;;;20.70;42.37;100828.03;1027971;28;1332;-65
2022/09/03 01:59:19;;;;;;;;;;;;;;;20.70;42.90;100826.16;1029123;28;1224;-65
2022/09/03 02:00:12;;;;;;;;;;;;;;;20.70;42.52;100826.16;1027600;28;1279;-65
2022/09/03 02:01:02;;;;;;;;;;;;;;;20.70;42.72;100828.03;1026345;28;1260;-65
2022/09/03 02:01:53;;;;;;;;;;;;;;;20.70;42.74;100817.19;1026764;28;1142;-66
2022/09/03 02:02:46;;;;;;;;;;;;;;;20.68;42.34;100822.78;1026230;28;675;-65
2022/09/03 02:03:36;;;;;;;;;;;;;;;20.67;42.64;100822.94;1029149;28;627;-66
2022/09/03 02:04:27;;;;;;;;;;;;;;;20.68;42.78;100824.63;1028653;28;836;-65
2022/09/03 02:05:17;;;;;;;;;;;;;;;20.67;42.91;100826.50;1029133;28;688;-65
2022/09/03 02:06:08;;;;;;;;;;;;;;;20.65;42.47;100823.09;1029127;28;622;-65
2022/09/03 02:06:59;;;;;;;;;;;;;;;20.65;42.80;100823.09;1028588;28;1209;-66
2022/09/03 02:07:51;;;;;;;;;;;;;;;20.66;42.60;100824.78;1029087;28;1125;-66
2022/09/03 02:08:42;;;;;;;;;;;;;;;20.65;42.53;100816.84;1026975;28;1271;-65
2022/09/03 02:09:32;;;;;;;;;;;;;;;20.66;42.48;100823.94;1028941;28;1221;-65
2022/09/03 02:10:22;;;;;;;;;;;;;;;20.66;42.83;100821.25;1026995;28;1221;-66
2022/09/03 02:11:13;;;;;;;;;;;;;;;20.66;42.79;100821.25;1029143;28;1037;-65
2022/09/03 02:12:03;;;;;;;;;;;;;;;20.65;42.62;100816.84;1024600;28;1328;-65
2022/09/03 02:12:54;;;;;;;;;;;;;;;20.67;42.44;100812.94;1028212;28;1159;-65
2022/09/03 02:13:45;;;;;;;;;;;;;;;20.66;42.45;100816.66;1028113;28;1182;-66
2022/09/03 02:14:35;;;;;;;;;;;;;;;20.66;42.68;100811.25;1028687;28;1190;-66
2022/09/03 02:15:25;;;;;;;;;;;;;;;20.66;42.88;100813.97;1028114;28;1286;-65
2022/09/03 02:16:16;;;;;;;;;;;;;;;20.66;42.93;100818.53;1029015;28;1914;-65
2022/09/03 02:17:06;;;;;;;;;;;;;;;20.65;42.53;100816.84;1028938;28;1166;-65
2022/09/03 02:17:57;;;;;;;;;;;;;;;20.64;42.82;100815.13;1029073;28;1212;-66
2022/09/03 02:18:47;;;;;;;;;;;;;;;20.63;42.79;100810.72;1027641;28;1154;-66
2022/09/03 02:19:38;;;;;;;;;;;;;;;20.63;42.50;100814.28;1024619;28;1210;-65
2022/09/03 02:20:28;;;;;;;;;;;;;;;20.63;42.93;100810.72;1026587;28;1209;-65
2022/09/03 02:21:19;;;;;;;;;;;;;;;20.62;43.01;100809.88;1025961;28;1174;-65
2022/09/03 02:22:09;;;;;;;;;;;;;;;20.62;42.95;100812.59;1029113;28;1161;-64
2022/09/03 02:23:00;;;;;;;;;;;;;;;20.59;42.88;100807.53;1027849;28;1529;-66
2022/09/03 02:23:50;;;;;;;;;;;;;;;20.61;42.56;100815.47;1028519;28;1262;-65
2022/09/03 02:24:41;;;;;;;;;;;;;;;20.60;42.70;100808.38;1028347;28;1134;-65
2022/09/03 02:25:32;;;;;;;;;;;;;;;20.61;42.54;100815.47;1027682;28;1308;-65
2022/09/03 02:26:22;;;;;;;;;;;;;;;20.61;42.67;100805.47;1029028;28;1135;-65
2022/09/03 02:27:12;;;;;;;;;;;;;;;20.61;42.89;100810.91;1028970;28;1245;-65
2022/09/03 02:28:03;;;;;;;;;;;;;;;20.62;42.79;100800.91;1029052;28;1123;-65
2022/09/03 02:28:53;;;;;;;;;;;;;;;20.61;42.60;100804.63;1028439;28;1115;-65
2022/09/03 02:29:44;;;;;;;;;;;;;;;20.60;42.51;100811.09;1029469;28;1233;-65
2022/09/03 02:30:35;;;;;;;;;;;;;;;20.59;43.01;100807.53;1027000;28;1264;-65
2022/09/03 02:31:26;;;;;;;;;;;;;;;20.59;42.68;100812.09;1025016;29;1094;-65
2022/09/03 02:32:17;;;;;;;;;;;;;;;20.59;42.67;100812.94;1028630;28;1352;-65
2022/09/03 02:33:07;;;;;;;;;;;;;;;20.59;42.67;100810.25;1022978;29;995;-65
2022/09/03 02:33:58;;;;;;;;;;;;;;;20.59;42.61;100801.28;1024910;28;1201;-65
2022/09/03 02:34:48;;;;;;;;;;;;;;;20.59;42.71;100821.06;1025532;28;1225;-65
2022/09/03 02:35:39;;;;;;;;;;;;;;;20.58;43.02;100813.13;1023516;29;1226;-66
2022/09/03 02:36:29;;;;;;;;;;;;;;;20.58;42.51;100813.97;1022909;29;1974;-65
2022/09/03 02:37:20;;;;;;;;;;;;;;;20.57;43.09;100811.41;1025282;28;1174;-65
2022/09/03 02:38:10;;;;;;;;;;;;;;;20.56;43.06;100809.72;1026648;28;1201;-65
2022/09/03 02:39:01;;;;;;;;;;;;;;;20.56;43.03;100807.84;1026641;28;1273;-65
2022/09/03 02:39:51;;;;;;;;;;;;;;;20.55;42.73;100814.28;1024379;28;1241;-65
2022/09/03 02:40:41;;;;;;;;;;;;;;;20.54;43.10;100815.28;1023863;29;1301;-65
2022/09/03 02:41:32;;;;;;;;;;;;;;;20.55;43.30;100810.72;1025927;28;1299;-65
2022/09/03 02:42:22;;;;;;;;;;;;;;;20.54;42.86;100809.88;1027448;28;1241;-65
2022/09/03 02:43:13;;;;;;;;;;;;;;;20.54;43.00;100815.28;1029442;28;1376;-65
2022/09/03 02:44:03;;;;;;;;;;;;;;;20.54;42.94;100809.03;1029457;28;1266;-65
2022/09/03 02:44:54;;;;;;;;;;;;;;;20.52;43.08;100811.91;1029506;28;1314;-65
2022/09/03 02:45:44;;;;;;;;;;;;;;;20.52;43.18;100805.63;1028871;28;1187;-65
2022/09/03 02:46:34;;;;;;;;;;;;;;;20.51;43.24;100807.50;1029381;28;1207;-65
2022/09/03 02:47:25;;;;;;;;;;;;;;;20.50;42.98;100808.50;1029233;28;1151;-65
2022/09/03 02:48:15;;;;;;;;;;;;;;;20.51;42.95;100810.22;1029125;28;790;-65
2022/09/03 02:49:06;;;;;;;;;;;;;;;20.51;43.06;100810.22;1029447;28;1078;-65
2022/09/03 02:49:56;;;;;;;;;;;;;;;20.51;43.02;100806.66;1029158;28;639;-65
2022/09/03 02:50:46;;;;;;;;;;;;;;;20.50;43.25;100807.66;1025257;28;615;-65
2022/09/03 02:51:37;;;;;;;;;;;;;;;20.49;42.52;100808.66;1028607;28;694;-65
2022/09/03 02:52:27;;;;;;;;;;;;;;;20.49;43.23;100806.81;1028352;28;615;-65
2022/09/03 02:53:18;;;;;;;;;;;;;;;20.49;42.63;100806.81;1025584;28;666;-65
2022/09/03 02:54:09;;;;;;;;;;;;;;;20.49;43.15;100803.25;1024520;29;674;-65
2022/09/03 02:54:59;;;;;;;;;;;;;;;20.49;42.84;100801.41;1028390;28;659;-65
2022/09/03 02:55:50;;;;;;;;;;;;;;;20.49;42.44;100800.53;1029426;28;1169;-65
2022/09/03 02:56:40;;;;;;;;;;;;;;;20.48;43.08;100798.84;1027651;28;736;-65
2022/09/03 02:57:31;;;;;;;;;;;;;;;20.48;42.78;100793.44;1028298;28;1208;-66
2022/09/03 02:58:21;;;;;;;;;;;;;;;20.47;42.46;100798.00;1028939;28;772;-65
2022/09/03 02:59:12;;;;;;;;;;;;;;;20.47;43.06;100803.41;1029511;28;685;-65
2022/09/03 03:00:02;;;;;;;;;;;;;;;20.46;42.83;100796.31;1028556;28;799;-65
2022/09/03 03:00:53;;;;;;;;;;;;;;;20.47;42.77;100797.16;1029467;28;631;-65
2022/09/03 03:01:43;;;;;;;;;;;;;;;20.48;42.89;100801.56;1028262;28;1165;-64
2022/09/03 03:02:33;;;;;;;;;;;;;;;20.47;42.90;100797.16;1027983;28;689;-65
2022/09/03 03:03:24;;;;;;;;;;;;;;;20.45;42.78;100798.16;1029825;28;983;-65
2022/09/03 03:04:14;;;;;;;;;;;;;;;20.45;42.83;100800.03;1025462;28;698;-64
2022/09/03 03:05:07;;;;;;;;;;;;;;;20.45;43.17;100798.16;1026852;28;1215;-64
2022/09/03 03:05:57;;;;;;;;;;;;;;;20.45;42.88;100797.31;1029467;28;1153;-65
2022/09/03 03:06:49;;;;;;;;;;;;;;;20.43;43.16;100800.19;1027825;28;631;-65
2022/09/03 03:07:40;;;;;;;;;;;;;;;20.43;43.16;100797.47;1028248;28;1030;-64
2022/09/03 03:08:32;;;;;;;;;;;;;;;20.42;43.09;100795.78;1028410;28;653;-65
2022/09/03 03:09:23;;;;;;;;;;;;;;;20.43;42.72;100796.63;1028386;28;674;-65
2022/09/03 03:10:13;;;;;;;;;;;;;;;20.44;42.65;100798.31;1028347;28;1137;-65
2022/09/03 03:11:04;;;;;;;;;;;;;;;20.43;42.77;100802.03;1027899;28;632;-65
2022/09/03 03:11:54;;;;;;;;;;;;;;;20.40;43.20;100795.13;1028225;28;1113;-65
2022/09/03 03:12:45;;;;;;;;;;;;;;;20.41;42.80;100804.09;1027824;28;709;-65
2022/09/03 03:13:35;;;;;;;;;;;;;;;20.39;42.82;100798.00;1029852;28;1172;-65
2022/09/03 03:14:26;;;;;;;;;;;;;;;20.40;43.14;100802.41;1029223;28;775;-65
2022/09/03 03:15:16;;;;;;;;;;;;;;;20.39;42.86;100798.00;1029294;28;1278;-65
2022/09/03 03:16:07;;;;;;;;;;;;;;;20.39;42.74;100798.00;1029631;28;1972;-65
2022/09/03 03:16:57;;;;;;;;;;;;;;;20.38;43.00;100793.59;1028891;28;686;-65
2022/09/03 03:17:47;;;;;;;;;;;;;;;20.39;42.67;100801.56;1028687;28;606;-65
2022/09/03 03:18:38;;;;;;;;;;;;;;;20.38;42.95;100796.28;1030299;28;646;-65
2022/09/03 03:19:28;;;;;;;;;;;;;;;20.39;42.54;100795.28;1030329;28;664;-65
2022/09/03 03:20:19;;;;;;;;;;;;;;;20.37;42.82;100795.44;1029304;28;606;-65
2022/09/03 03:21:09;;;;;;;;;;;;;;;20.38;42.91;100794.44;1026791;28;704;-65
2022/09/03 03:22:00;;;;;;;;;;;;;;;20.37;42.93;100794.59;1026016;28;686;-65
2022/09/03 03:22:50;;;;;;;;;;;;;;;20.37;42.64;100792.75;1029943;28;650;-65
2022/09/03 03:23:41;;;;;;;;;;;;;;;20.36;43.21;100791.03;1029247;28;650;-65
2022/09/03 03:24:31;;;;;;;;;;;;;;;20.35;43.18;100792.03;1030206;28;1105;-65
2022/09/03 03:25:21;;;;;;;;;;;;;;;20.36;42.90;100785.63;1028525;28;603;-65
2022/09/03 03:26:12;;;;;;;;;;;;;;;20.36;43.19;100790.16;1026019;28;1101;-65
2022/09/03 03:27:05;;;;;;;;;;;;;;;20.35;42.63;100789.31;1028567;28;690;-64
2022/09/03 03:27:55;;;;;;;;;;;;;;;20.35;43.33;100791.16;1029473;28;1358;-65
2022/09/03 03:28:47;;;;;;;;;;;;;;;20.36;43.12;100792.88;1029132;28;700;-65
2022/09/03 03:29:38;;;;;;;;;;;;;;;20.33;43.21;100783.22;1027711;28;1324;-65
2022/09/03 03:30:28;;;;;;;;;;;;;;;20.35;43.08;100794.72;1029024;28;1250;-65
2022/09/03 03:31:19;;;;;;;;;;;;;;;20.36;42.67;100784.75;1030195;28;1074;-65
2022/09/03 03:32:09;;;;;;;;;;;;;;;20.36;42.62;100790.16;1029091;28;701;-65
2022/09/03 03:33:00;;;;;;;;;;;;;;;20.36;43.22;100788.34;1026015;28;1243;-65
2022/09/03 03:33:51;;;;;;;;;;;;;;;20.34;42.77;100782.22;1028138;28;744;-65
2022/09/03 03:34:41;;;;;;;;;;;;;;;20.33;43.17;100796.75;1028976;28;1181;-65
2022/09/03 03:35:31;;;;;;;;;;;;;;;20.34;43.49;100786.78;1028440;28;724;-65
2022/09/03 03:36:22;;;;;;;;;;;;;;;20.33;43.47;100783.22;1029448;28;1883;-65
2022/09/03 03:37:12;;;;;;;;;;;;;;;20.32;43.28;100786.94;1028615;28;759;-65
2022/09/03 03:38:03;;;;;;;;;;;;;;;20.32;42.80;100789.63;1029681;28;1180;-65
2022/09/03 03:38:54;;;;;;;;;;;;;;;20.31;43.10;100792.50;1029111;28;1137;-65
2022/09/03 03:39:44;;;;;;;;;;;;;;;20.30;43.18;100791.66;1027868;28;635;-65
2022/09/03 03:40:35;;;;;;;;;;;;;;;20.30;43.02;100788.94;1025251;28;1145;-65
2022/09/03 03:41:26;;;;;;;;;;;;;;;20.30;42.92;100791.66;1029115;28;635;-65
2022/09/03 03:42:16;;;;;;;;;;;;;;;20.30;43.42;100788.94;1029118;28;615;-65
2022/09/03 03:43:07;;;;;;;;;;;;;;;20.30;43.17;100788.94;1029695;28;657;-65
2022/09/03 03:43:57;;;;;;;;;;;;;;;20.31;42.78;100789.78;1029725;28;721;-65
2022/09/03 03:44:48;;;;;;;;;;;;;;;20.29;43.03;100789.97;1029028;28;680;-65
2022/09/03 03:45:38;;;;;;;;;;;;;;;20.30;43.45;100788.94;1029560;28;1224;-65
2022/09/03 03:46:29;;;;;;;;;;;;;;;20.30;43.11;100788.94;1027935;28;728;-65
2022/09/03 03:47:19;;;;;;;;;;;;;;;20.30;43.56;100786.25;1029782;28;638;-65
2022/09/03 03:48:10;;;;;;;;;;;;;;;20.30;43.40;100788.09;1029619;28;649;-65
2022/09/03 03:49:00;;;;;;;;;;;;;;;20.29;43.51;100789.97;1026342;28;1208;-65
2022/09/03 03:49:51;;;;;;;;;;;;;;;20.30;43.44;100788.09;1027778;28;788;-65
2022/09/03 03:50:41;;;;;;;;;;;;;;;20.29;43.45;100795.38;1029647;28;696;-65
2022/09/03 03:51:31;;;;;;;;;;;;;;;20.30;42.91;100790.81;1028268;28;971;-65
2022/09/03 03:52:22;;;;;;;;;;;;;;;20.29;43.12;100787.25;1028734;28;737;-65
2022/09/03 03:53:12;;;;;;;;;;;;;;;20.28;43.44;100785.56;1024785;29;680;-65
2022/09/03 03:54:03;;;;;;;;;;;;;;;20.27;43.45;100791.97;1029959;28;632;-65
2022/09/03 03:54:53;;;;;;;;;;;;;;;20.27;43.44;100794.69;1030670;28;650;-65
2022/09/03 03:55:44;;;;;;;;;;;;;;;20.27;43.45;100797.41;1029647;28;623;-65
2022/09/03 03:56:34;;;;;;;;;;;;;;;20.26;42.95;100798.41;1024794;28;1184;-65
2022/09/03 03:57:25;;;;;;;;;;;;;;;20.28;43.20;100803.66;1029026;28;567;-65
2022/09/03 03:58:15;;;;;;;;;;;;;;;20.28;43.75;100796.38;1029049;28;1216;-65
2022/09/03 03:59:05;;;;;;;;;;;;;;;20.27;43.15;100800.09;1027899;28;658;-65
2022/09/03 03:59:56;;;;;;;;;;;;;;;20.28;43.70;100799.09;1026921;28;1082;-65
2022/09/03 04:00:48;;;;;;;;;;;;;;;20.28;43.29;100804.50;1028356;28;1408;-65
2022/09/03 04:01:38;;;;;;;;;;;;;;;20.26;43.26;100801.09;1029561;28;686;-66
2022/09/03 04:02:29;;;;;;;;;;;;;;;20.25;43.55;100798.56;1029458;28;1185;-65
2022/09/03 04:03:19;;;;;;;;;;;;;;;20.25;42.89;100795.84;1025147;28;643;-65
2022/09/03 04:04:10;;;;;;;;;;;;;;;20.24;43.19;100791.47;1025037;29;758;-65
2022/09/03 04:05:00;;;;;;;;;;;;;;;20.25;42.96;100794.00;1029586;28;690;-65
2022/09/03 04:05:50;;;;;;;;;;;;;;;20.24;43.19;100794.19;1028258;28;665;-65
2022/09/03 04:06:41;;;;;;;;;;;;;;;20.24;42.89;100797.75;1029562;28;683;-65
2022/09/03 04:07:31;;;;;;;;;;;;;;;20.25;43.26;100798.56;1028533;28;705;-65
2022/09/03 04:08:22;;;;;;;;;;;;;;;20.24;43.03;100789.63;1029504;28;1219;-65
2022/09/03 04:09:12;;;;;;;;;;;;;;;20.25;43.01;100794.00;1026831;28;1055;-65
2022/09/03 04:10:03;;;;;;;;;;;;;;;20.25;43.15;100802.13;1028442;28;643;-65
2022/09/03 04:10:53;;;;;;;;;;;;;;;20.25;43.00;100793.16;1028869;28;1011;-65
2022/09/03 04:11:43;;;;;;;;;;;;;;;20.23;43.28;100798.75;1028255;28;676;-65
2022/09/03 04:12:34;;;;;;;;;;;;;;;20.22;43.48;100799.75;1029093;28;691;-65
2022/09/03 04:13:25;;;;;;;;;;;;;;;20.22;42.91;100799.75;1029653;28;622;-65
2022/09/03 04:14:19;;;;;;;;;;;;;;;20.21;43.15;100791.81;1028973;28;1279;-65
2022/09/03 04:15:10;;;;;;;;;;;;;;;20.22;43.14;100793.50;1028014;28;681;-65
2022/09/03 04:16:00;;;;;;;;;;;;;;;20.20;43.73;100801.78;1029412;28;1153;-64
2022/09/03 04:16:51;;;;;;;;;;;;;;;20.19;43.19;100791.13;1028438;28;745;-65
2022/09/03 04:17:42;;;;;;;;;;;;;;;20.19;43.78;100794.66;1029615;28;659;-65
2022/09/03 04:18:34;;;;;;;;;;;;;;;20.19;42.97;100794.66;1029007;28;619;-65
2022/09/03 04:19:24;;;;;;;;;;;;;;;20.19;43.15;100786.56;1029090;28;678;-65
2022/09/03 04:20:14;;;;;;;;;;;;;;;20.19;43.70;100797.38;1029524;28;683;-64
2022/09/03 04:21:05;;;;;;;;;;;;;;;20.20;42.95;100792.81;1029381;28;1173;-65
2022/09/03 04:21:56;;;;;;;;;;;;;;;20.20;42.94;100788.25;1028944;28;795;-65
2022/09/03 04:22:46;;;;;;;;;;;;;;;20.20;43.49;100785.53;1029361;28;1165;-65
2022/09/03 04:23:37;;;;;;;;;;;;;;;20.20;43.09;100785.53;1028413;28;811;-65
2022/09/03 04:24:27;;;;;;;;;;;;;;;20.20;42.99;100784.69;1029257;28;1240;-66
2022/09/03 04:25:18;;;;;;;;;;;;;;;20.20;43.15;100793.66;1023651;29;671;-65